Главная страница
METAR-TAF:

METAR-TAF

Аэропорты :

Таллин, Эстония

широта: 59-23N, долгота: 024-35E, высота над уровнем моря: 44 м

Текущие метеонаблюдения

Эта сводка был подготовлена 16 минут назад, в 16:20 UTC
Ветер 9 Узел от восточно-северо-восточный, изменяющийся между северо-северо-восточный и восточный
Температура 20°C
Влажность 43%
Давление 1010 hPa
Видимость 10 км и более
Нет облачности ниже 1500 м, и нет кучево-дождевой облачности

METAR: EETN 221620Z 06009KT 030V100 CAVOK 20/07 Q1010 NOSIG

Время: 19:36 (16:36 UTC)

Прогноз

Эта сводка был подготовлена 5 часа и 6 минут назад, в 11:30 UTC
Прогноз действительный с 22-го 12 UTC до 23-го 12 UTC
Ветер 7 Узел от северо-северо-восточный
Видимость 10 км и более
Нет облачности ниже 1500 м, и нет кучево-дождевой облачности
изменения
С 23-го 06 UTC до 23-го 08 UTC
Ветер 12 Узел от восточный с порывами до 22 Узел
небольшая облачность на высоте 4000 фута, Кучево-дождевые.

TAF: EETN 221130Z 2212/2312 03007KT CAVOK BECMG 2306/2308 08012G22KT FEW040CB

Метеонаблюдения и прогнозы для более 4000 аэропортов (сводки METAR и TAF).

Имеющиеся станции представлены на карте желтыми и красными точками.

Чтобы увидеть название станции, наведите на нее мышь.

Затем щелкните, чтобы увидеть метеонаблюдения и метеопрогнозы.

Управление картой: чтобы увеличить масштаб, щелкните зеленые кнопки с черным крестиком; чтобы уменьшить масштаб, щелкните зеленую кнопку с тире; для просмотра соседних карт щелкайте зеленые стрелки.


METAR-TAF: